Time;durP1;ratioP1;P1;durP2;ratioP2;P2;SDS_P1;SDS_P2;PMS_P1;PMS_P2;Temp;Humidity;BMP_temperature;BMP_pressure;BME280_temperature;BME280_humidity;BME280_pressure;Samples;Min_cycle;Max_cycle;Signal;HPM_P1;HPM_P2
2023/12/16 00:00:23;;;;;;;0.28;0.28;;;;;;;10.63;59.12;103909.69;5062583;28;20031;-82
2023/12/16 00:02:49;;;;;;;0.17;0.17;;;;;;;10.71;58.45;103916.97;5060286;28;20465;-81
2023/12/16 00:05:15;;;;;;;0.10;0.10;;;;;;;10.65;59.01;103923.91;5062462;28;20051;-82
2023/12/16 00:07:41;;;;;;;0.10;0.10;;;;;;;10.64;58.74;103918.53;5066258;28;20059;-82
2023/12/16 00:10:09;;;;;;;0.10;0.10;;;;;;;10.64;58.71;103926.50;5055866;28;20412;-83
2023/12/16 00:12:35;;;;;;;0.20;0.20;;;;;;;10.68;58.97;103917.78;5062224;28;20391;-83
2023/12/16 00:15:05;;;;;;;0.13;0.13;;;;;;;10.71;58.77;103919.63;5056365;28;20017;-83
2023/12/16 00:17:32;;;;;;;0.10;0.10;;;;;;;10.72;59.07;103910.81;5056814;28;20021;-82
2023/12/16 00:19:58;;;;;;;0.47;0.47;;;;;;;10.68;59.34;103910.72;5060185;28;20530;-82
2023/12/16 00:22:25;;;;;;;4.00;1.83;;;;;;;10.59;59.41;103918.41;5059224;28;20021;-83
2023/12/16 00:24:51;;;;;;;0.35;0.35;;;;;;;10.56;59.74;103915.66;5066470;28;20031;-82
2023/12/16 00:27:17;;;;;;;0.20;0.20;;;;;;;10.49;59.62;103918.97;5061791;28;20025;-82
2023/12/16 00:29:43;;;;;;;0.20;0.20;;;;;;;10.40;59.70;103913.41;5064302;28;20527;-84
2023/12/16 00:32:09;;;;;;;0.15;0.15;;;;;;;10.35;59.52;103908.84;5069405;28;20029;-84
2023/12/16 00:34:36;;;;;;;0.15;0.15;;;;;;;10.24;59.98;103907.59;5071292;28;20044;-84
2023/12/16 00:37:06;;;;;;;0.20;0.20;;;;;;;10.17;60.15;103905.63;5060301;28;20135;-83
2023/12/16 00:39:33;;;;;;;0.20;0.20;;;;;;;10.09;60.60;103907.13;5064630;28;20644;-84
2023/12/16 00:42:00;;;;;;;0.10;0.10;;;;;;;10.03;60.96;103914.03;5062139;28;20033;-84
2023/12/16 00:44:26;;;;;;;0.10;0.10;;;;;;;10.07;60.71;103901.81;5060951;28;20025;-83
2023/12/16 00:46:52;;;;;;;0.15;0.15;;;;;;;10.00;60.82;103898.03;5068332;28;20502;-83
2023/12/16 00:49:18;;;;;;;1.15;1.02;;;;;;;9.98;60.86;103905.06;5062409;28;20480;-84
2023/12/16 00:51:45;;;;;;;0.10;0.10;;;;;;;10.04;60.48;103905.25;5064851;28;20510;-84
2023/12/16 00:54:11;;;;;;;0.20;0.20;;;;;;;9.94;61.03;103911.09;5065017;28;20046;-85
2023/12/16 00:56:37;;;;;;;0.47;0.47;;;;;;;9.93;61.01;103913.69;5060599;28;20032;-83
2023/12/16 00:59:03;;;;;;;0.20;0.20;;;;;;;9.85;61.49;103913.44;5060915;28;20425;-84
2023/12/16 01:01:29;;;;;;;0.10;0.10;;;;;;;9.92;60.91;103919.84;5061835;28;20036;-83
2023/12/16 01:03:55;;;;;;;0.10;0.10;;;;;;;9.82;61.21;103910.69;5059454;28;20032;-83
2023/12/16 01:06:22;;;;;;;0.20;0.20;;;;;;;9.74;61.69;103910.44;5065759;28;20028;-84
2023/12/16 01:08:48;;;;;;;0.20;0.20;;;;;;;9.70;61.80;103909.44;5059461;28;20036;-83
2023/12/16 01:11:14;;;;;;;0.20;0.20;;;;;;;9.67;62.12;103913.72;5060834;28;20024;-84
2023/12/16 01:13:40;;;;;;;0.45;0.45;;;;;;;9.56;62.51;103905.47;5061381;28;20037;-84
2023/12/16 01:16:07;;;;;;;0.10;0.10;;;;;;;9.60;62.03;103902.06;5055830;28;20021;-85
2023/12/16 01:18:36;;;;;;;0.13;0.13;;;;;;;9.67;61.77;103889.91;5060928;28;20158;-85
2023/12/16 01:21:05;;;;;;;0.10;0.10;;;;;;;9.60;62.24;103898.53;5064165;28;20029;-83
2023/12/16 01:23:32;;;;;;;0.20;0.20;;;;;;;9.58;62.34;103897.56;5060653;28;20021;-81
2023/12/16 01:25:58;;;;;;;0.17;0.17;;;;;;;9.55;62.53;103893.94;5064672;28;20028;-82
2023/12/16 01:28:24;;;;;;;0.30;0.30;;;;;;;9.44;62.82;103899.75;5060105;28;20029;-84
2023/12/16 01:30:51;;;;;;;0.20;0.20;;;;;;;9.48;62.82;103904.28;5066141;28;20040;-83
2023/12/16 01:33:17;;;;;;;0.20;0.20;;;;;;;9.48;63.10;103906.94;5061295;28;20029;-83
2023/12/16 01:35:43;;;;;;;0.10;0.10;;;;;;;9.41;63.24;103899.63;5065516;28;20036;-83
2023/12/16 01:38:10;;;;;;;0.20;0.20;;;;;;;9.41;63.39;103904.91;5060125;28;20021;-84
2023/12/16 01:40:37;;;;;;;0.10;0.10;;;;;;;9.37;63.60;103904.81;5058548;28;20142;-83
2023/12/16 01:43:08;;;;;;;0.20;0.20;;;;;;;9.39;63.68;103905.78;5064743;28;20032;-84
2023/12/16 01:45:34;;;;;;;0.10;0.10;;;;;;;9.34;63.85;103902.06;5077640;28;20088;-82
2023/12/16 01:48:03;;;;;;;0.20;0.20;;;;;;;9.24;64.38;103902.59;5065672;28;20052;-83
2023/12/16 01:50:30;;;;;;;0.20;0.20;;;;;;;9.31;63.51;103901.97;5059750;28;20436;-84
2023/12/16 01:52:57;;;;;;;0.10;0.10;;;;;;;9.34;63.36;103895.88;5061032;28;20021;-84
2023/12/16 01:55:24;;;;;;;0.85;0.85;;;;;;;9.28;64.02;103899.19;5062254;28;20033;-84
2023/12/16 01:57:51;;;;;;;0.20;0.20;;;;;;;9.22;64.36;103904.28;5064040;28;20043;-84
2023/12/16 02:00:20;;;;;;;0.10;0.10;;;;;;;9.29;63.91;103901.00;5072902;28;20098;-85
2023/12/16 02:02:47;;;;;;;0.20;0.20;;;;;;;9.28;64.21;103903.59;5066168;28;20025;-83
2023/12/16 02:05:14;;;;;;;0.20;0.20;;;;;;;9.28;64.27;103899.19;5066061;28;20577;-84
2023/12/16 02:07:40;;;;;;;1.02;0.85;;;;;;;9.28;64.29;103904.50;5065740;28;20226;-84
2023/12/16 02:10:06;;;;;;;0.20;0.20;;;;;;;9.26;64.64;103907.94;5061765;28;20094;-83
2023/12/16 02:12:34;;;;;;;0.20;0.20;;;;;;;9.27;64.63;103908.00;5066582;28;20035;-83
2023/12/16 02:15:01;;;;;;;0.20;0.20;;;;;;;9.17;65.13;103912.09;5064480;28;20025;-83
2023/12/16 02:17:27;;;;;;;0.20;0.20;;;;;;;9.22;64.51;103905.19;5069666;28;20025;-82
2023/12/16 02:19:54;;;;;;;0.93;0.93;;;;;;;9.24;64.71;103902.59;5072930;28;20024;-83
2023/12/16 02:22:22;;;;;;;0.10;0.10;;;;;;;9.25;64.77;103909.69;5065513;28;20036;-83
2023/12/16 02:24:49;;;;;;;0.20;0.20;;;;;;;9.27;64.32;103912.38;5064517;28;20391;-84
2023/12/16 02:27:15;;;;;;;0.20;0.20;;;;;;;9.32;64.24;103914.38;5064383;28;20017;-84
2023/12/16 02:29:41;;;;;;;0.13;0.13;;;;;;;9.32;64.55;103901.13;5067491;28;20430;-82
2023/12/16 02:32:08;;;;;;;0.88;0.88;;;;;;;9.29;64.71;103901.00;5059500;28;20025;-82
2023/12/16 02:34:34;;;;;;;0.10;0.10;;;;;;;9.34;64.26;103902.06;5062084;28;20048;-83
2023/12/16 02:37:05;;;;;;;0.10;0.10;;;;;;;9.31;64.29;103904.63;5059181;28;20032;-82
2023/12/16 02:39:32;;;;;;;1.95;1.85;;;;;;;9.35;64.23;103901.22;5058782;28;20029;-82
2023/12/16 02:41:59;;;;;;;5.88;2.78;;;;;;;9.31;64.64;103896.69;5065733;28;20033;-84
2023/12/16 02:44:25;;;;;;;0.20;0.20;;;;;;;9.29;64.92;103885.13;5057755;28;20035;-82
2023/12/16 02:46:52;;;;;;;0.47;0.47;;;;;;;9.25;64.76;103892.94;5053337;28;20103;-82
2023/12/16 02:49:18;;;;;;;0.20;0.20;;;;;;;9.30;64.44;103896.63;5057692;28;20029;-83
2023/12/16 02:51:44;;;;;;;0.10;0.10;;;;;;;9.29;64.90;103889.53;5062476;28;20079;-83
2023/12/16 02:54:10;;;;;;;0.10;0.10;;;;;;;9.27;64.82;103897.44;5059234;28;20107;-84
2023/12/16 02:56:36;;;;;;;0.10;0.10;;;;;;;9.25;64.73;103893.81;5059473;28;20106;-84
2023/12/16 02:59:02;;;;;;;9.52;1.85;;;;;;;9.26;64.70;103890.34;5057667;28;20040;-84
2023/12/16 03:01:29;;;;;;;0.20;0.20;;;;;;;9.28;65.23;103890.38;5059797;28;20065;-83
2023/12/16 03:03:55;;;;;;;0.15;0.15;;;;;;;9.31;64.56;103901.97;5053178;28;20036;-85
2023/12/16 03:06:21;;;;;;;0.10;0.10;;;;;;;9.24;64.81;103902.59;5057794;28;20514;-83
2023/12/16 03:08:47;;;;;;;0.22;0.22;;;;;;;9.20;65.09;103892.75;5058109;28;20040;-83
2023/12/16 03:11:13;;;;;;;0.20;0.20;;;;;;;9.25;65.17;103899.13;5058967;28;20028;-83
2023/12/16 03:13:40;;;;;;;0.10;0.10;;;;;;;9.23;64.84;103898.16;5056505;28;20044;-82
2023/12/16 03:16:06;;;;;;;0.10;0.10;;;;;;;9.25;65.41;103898.22;5052210;28;20442;-83
2023/12/16 03:18:32;;;;;;;0.10;0.10;;;;;;;9.27;65.26;103892.13;5058988;28;20056;-84
2023/12/16 03:20:58;;;;;;;0.20;0.20;;;;;;;9.27;65.43;103897.44;5058447;28;20093;-83
2023/12/16 03:23:25;;;;;;;0.10;0.10;;;;;;;9.26;65.59;103894.72;5057294;28;20040;-85
2023/12/16 03:25:51;;;;;;;0.25;0.25;;;;;;;9.26;65.76;103887.69;5058478;28;20043;-85
2023/12/16 03:28:17;;;;;;;0.10;0.10;;;;;;;9.28;65.71;103890.38;5063002;28;20158;-85
2023/12/16 03:30:43;;;;;;;0.10;0.10;;;;;;;9.27;65.39;103886.84;5060942;28;20029;-84
2023/12/16 03:33:10;;;;;;;0.47;0.47;;;;;;;9.22;66.01;103891.06;5056898;28;20481;-84
2023/12/16 03:35:36;;;;;;;0.20;0.20;;;;;;;9.27;65.93;103881.56;5060910;28;20052;-84
2023/12/16 03:38:02;;;;;;;0.10;0.10;;;;;;;9.16;66.40;103890.84;5061598;28;20024;-84
2023/12/16 03:40:29;;;;;;;0.20;0.20;;;;;;;9.22;65.50;103894.63;5059028;28;20488;-84
2023/12/16 03:42:56;;;;;;;1.40;1.30;;;;;;;9.05;66.57;103894.00;5060146;28;20108;-84
2023/12/16 03:45:23;;;;;;;0.10;0.10;;;;;;;9.13;66.06;103893.38;5061077;28;20060;-85
2023/12/16 03:47:50;;;;;;;0.10;0.10;;;;;;;9.17;65.80;103884.72;5061545;28;20033;-83
2023/12/16 03:50:16;;;;;;;0.20;0.20;;;;;;;9.06;66.65;103887.00;5062477;28;20029;-83
2023/12/16 03:52:42;;;;;;;0.20;0.20;;;;;;;9.02;66.64;103885.06;5059990;28;20039;-84
2023/12/16 03:55:09;;;;;;;0.13;0.13;;;;;;;9.05;66.67;103885.19;5076283;28;20037;-85
2023/12/16 03:57:35;;;;;;;0.20;0.20;;;;;;;9.05;66.59;103879.91;5067007;28;20032;-86
2023/12/16 04:00:01;;;;;;;0.20;0.20;;;;;;;9.04;66.70;103873.69;5056373;28;20037;-84
2023/12/16 04:02:27;;;;;;;0.20;0.20;;;;;;;9.04;66.58;103868.41;5060621;28;20025;-84
2023/12/16 04:04:53;;;;;;;0.20;0.20;;;;;;;9.01;66.64;103870.97;5058873;28;20143;-84
2023/12/16 04:07:19;;;;;;;0.10;0.10;;;;;;;9.02;66.54;103859.53;5062402;28;20040;-84
2023/12/16 04:09:46;;;;;;;0.30;0.30;;;;;;;9.02;66.92;103867.47;5075981;28;20036;-84
2023/12/16 04:12:13;;;;;;;0.20;0.20;;;;;;;8.99;66.66;103866.47;5066765;28;20092;-83
2023/12/16 04:14:39;;;;;;;1.17;1.17;;;;;;;8.89;67.69;103866.13;5062659;28;20129;-85
2023/12/16 04:17:06;;;;;;;0.20;0.20;;;;;;;8.92;67.59;103867.09;5064402;28;20441;-84
2023/12/16 04:19:32;;;;;;;0.20;0.20;;;;;;;8.94;67.51;103866.28;5056942;28;20671;-84
2023/12/16 04:21:59;;;;;;;0.20;0.20;;;;;;;8.90;67.12;103864.41;5060853;28;20028;-83
2023/12/16 04:24:25;;;;;;;0.20;0.20;;;;;;;8.83;67.69;103870.31;5059563;28;20388;-84
2023/12/16 04:26:51;;;;;;;0.20;0.20;;;;;;;8.81;67.44;103869.34;5059351;28;20402;-84
2023/12/16 04:29:17;;;;;;;0.20;0.20;;;;;;;8.79;68.02;103871.03;5061789;28;20407;-84
2023/12/16 04:31:44;;;;;;;0.35;0.35;;;;;;;8.71;67.53;103862.81;5060814;28;20506;-84
2023/12/16 04:34:11;;;;;;;0.10;0.10;;;;;;;8.77;67.75;103868.31;5063735;28;20079;-86
2023/12/16 04:36:40;;;;;;;0.95;0.95;;;;;;;8.77;67.82;103867.44;5062313;28;20404;-83
2023/12/16 04:39:07;;;;;;;0.20;0.20;;;;;;;8.73;67.88;103877.00;5064630;28;20025;-85
2023/12/16 04:41:34;;;;;;;1.02;1.00;;;;;;;8.77;68.07;103870.97;5063878;28;20510;-85
2023/12/16 04:44:00;;;;;;;0.50;0.50;;;;;;;8.75;67.88;103870.03;5062092;28;20062;-84
2023/12/16 04:46:26;;;;;;;1.05;1.00;;;;;;;8.73;68.12;103863.78;5056969;28;20048;-86
2023/12/16 04:48:54;;;;;;;0.15;0.15;;;;;;;8.68;69.11;103868.00;5057195;28;20037;-85
2023/12/16 04:51:20;;;;;;;0.13;0.13;;;;;;;8.68;68.52;103866.25;5060980;28;20547;-84
2023/12/16 04:53:46;;;;;;;0.85;0.85;;;;;;;8.66;68.77;103870.59;5064375;28;20036;-85
2023/12/16 04:56:13;;;;;;;0.30;0.30;;;;;;;8.67;68.85;103868.84;5067268;28;20048;-85
2023/12/16 04:58:39;;;;;;;0.20;0.20;;;;;;;8.70;68.49;103874.25;5062582;28;20029;-85
2023/12/16 05:01:05;;;;;;;0.10;0.10;;;;;;;8.68;68.43;103873.28;5064350;28;20438;-83
2023/12/16 05:03:35;;;;;;;0.28;0.28;;;;;;;8.71;68.53;103874.31;5066502;28;20029;-84
2023/12/16 05:06:01;;;;;;;0.10;0.10;;;;;;;8.72;68.43;103870.81;5062461;28;20028;-84
2023/12/16 05:08:27;;;;;;;0.10;0.10;;;;;;;8.68;69.22;103871.53;5062254;28;20120;-82
2023/12/16 05:10:54;;;;;;;0.10;0.10;;;;;;;8.75;68.86;103867.38;5067355;28;20028;-83
2023/12/16 05:13:20;;;;;;;0.10;0.10;;;;;;;8.71;69.47;103874.31;5056124;28;20083;-83
2023/12/16 05:15:46;;;;;;;0.10;0.10;;;;;;;8.71;69.65;103873.38;5057845;28;20035;-83
2023/12/16 05:18:12;;;;;;;0.15;0.15;;;;;;;8.61;70.17;103861.59;5051532;28;20029;-85
2023/12/16 05:20:39;;;;;;;0.22;0.22;;;;;;;8.69;69.45;103860.13;5058236;28;20036;-84
2023/12/16 05:23:05;;;;;;;0.17;0.17;;;;;;;8.58;70.01;103862.38;5057777;28;20029;-84
2023/12/16 05:25:31;;;;;;;0.20;0.20;;;;;;;8.70;69.48;103856.63;5057331;28;20519;-83
2023/12/16 05:27:58;;;;;;;0.17;0.17;;;;;;;8.69;69.73;103852.19;5060641;28;20043;-83
2023/12/16 05:30:24;;;;;;;0.20;0.20;;;;;;;8.67;69.29;103851.25;5058693;28;20163;-81
2023/12/16 05:32:51;;;;;;;0.10;0.10;;;;;;;8.65;69.95;103850.28;5057813;28;20043;-83
2023/12/16 05:35:19;;;;;;;0.90;0.90;;;;;;;8.66;69.58;103854.72;5056290;28;20028;-84
2023/12/16 05:37:46;;;;;;;0.20;0.20;;;;;;;8.63;70.20;103851.06;5061638;28;20033;-83
2023/12/16 05:40:12;;;;;;;0.20;0.20;;;;;;;8.62;69.81;103847.50;5062488;28;20032;-83
2023/12/16 05:42:44;;;;;;;0.10;0.10;;;;;;;8.75;69.85;103856.81;5065901;28;20040;-84
2023/12/16 05:45:10;;;;;;;0.40;0.40;;;;;;;8.71;69.77;103857.53;5064801;28;20044;-84
2023/12/16 05:47:36;;;;;;;0.65;0.65;;;;;;;8.76;70.14;103857.69;5057772;28;20303;-85
2023/12/16 05:50:03;;;;;;;0.10;0.10;;;;;;;8.71;69.83;103862.81;5056757;28;20104;-85
2023/12/16 05:52:31;;;;;;;0.20;0.20;;;;;;;8.70;69.62;103855.75;5062858;28;20542;-85
2023/12/16 05:54:58;;;;;;;0.20;0.20;;;;;;;8.69;70.04;103860.13;5058890;28;20088;-85
2023/12/16 05:57:24;;;;;;;1.35;1.35;;;;;;;8.64;70.30;103861.69;5059344;28;20040;-83
2023/12/16 05:59:50;;;;;;;7.82;1.42;;;;;;;8.63;70.84;103859.00;5059064;28;20029;-85
2023/12/16 06:02:16;;;;;;;0.25;0.25;;;;;;;8.63;70.38;103864.28;5060369;28;20028;-82
2023/12/16 06:04:43;;;;;;;0.20;0.20;;;;;;;8.59;70.90;103865.91;5075304;28;20029;-83
2023/12/16 06:07:10;;;;;;;0.20;0.20;;;;;;;8.62;70.80;103868.66;5068122;28;20024;-85
2023/12/16 06:09:36;;;;;;;2.15;2.05;;;;;;;8.60;70.65;103865.09;5060228;28;20596;-85
2023/12/16 06:12:02;;;;;;;10.93;1.85;;;;;;;8.60;70.55;103865.09;5062484;28;20053;-85
2023/12/16 06:14:29;;;;;;;0.30;0.30;;;;;;;8.64;70.78;103864.34;5061839;28;20499;-85
2023/12/16 06:16:55;;;;;;;0.20;0.20;;;;;;;8.68;70.60;103866.25;5056225;28;20025;-86
2023/12/16 06:19:21;;;;;;;0.35;0.35;;;;;;;8.67;70.46;103861.81;5055857;28;20116;-85
2023/12/16 06:21:47;;;;;;;2.85;2.65;;;;;;;8.64;71.05;103860.81;5068397;28;20048;-85
2023/12/16 06:24:13;;;;;;;0.90;0.77;;;;;;;8.77;70.22;103875.38;5060510;28;20029;-84
2023/12/16 06:26:40;;;;;;;0.20;0.20;;;;;;;8.79;70.54;103874.56;5079449;28;20036;-85
2023/12/16 06:29:06;;;;;;;0.68;0.68;;;;;;;8.78;70.46;103874.53;5061773;28;20024;-85
2023/12/16 06:31:32;;;;;;;0.20;0.20;;;;;;;8.78;70.40;103880.69;5067088;28;20040;-85
2023/12/16 06:33:59;;;;;;;0.10;0.10;;;;;;;8.76;70.13;103886.78;5063746;28;20064;-86
2023/12/16 06:36:25;;;;;;;0.30;0.30;;;;;;;8.72;70.13;103891.97;5060347;28;20134;-83
2023/12/16 06:38:51;;;;;;;0.80;0.80;;;;;;;8.72;70.48;103889.31;5063579;28;20060;-83
2023/12/16 06:41:17;;;;;;;1.35;1.30;;;;;;;8.65;70.19;103889.94;5059823;28;20499;-83
2023/12/16 06:43:44;;;;;;;0.13;0.13;;;;;;;8.76;70.30;103886.78;5067575;28;20094;-85
2023/12/16 06:46:10;;;;;;;0.17;0.17;;;;;;;8.64;70.12;103877.56;5063347;28;20021;-85
2023/12/16 06:48:36;;;;;;;0.20;0.20;;;;;;;8.68;69.82;103887.38;5066220;28;20115;-84
2023/12/16 06:51:03;;;;;;;0.10;0.10;;;;;;;8.60;70.46;103888.88;5059080;28;21287;-84
2023/12/16 06:53:30;;;;;;;0.20;0.20;;;;;;;8.57;70.45;103879.09;5061625;28;20384;-83
2023/12/16 06:55:57;;;;;;;0.20;0.20;;;;;;;8.53;70.08;103879.78;5063929;28;20510;-84
2023/12/16 06:58:23;;;;;;;3.55;1.88;;;;;;;8.61;70.05;103892.41;5061356;28;20034;-85
2023/12/16 07:00:49;;;;;;;0.88;0.82;;;;;;;8.63;69.84;103899.53;5057394;28;20135;-85
2023/12/16 07:03:16;;;;;;;0.15;0.15;;;;;;;8.70;69.96;103905.97;5060720;28;20025;-84
2023/12/16 07:05:42;;;;;;;9.15;3.95;;;;;;;8.71;69.75;103902.47;5060737;28;20037;-86
2023/12/16 07:08:08;;;;;;;0.10;0.10;;;;;;;8.64;69.81;103901.34;5058817;28;20033;-84
2023/12/16 07:10:34;;;;;;;0.30;0.30;;;;;;;8.67;69.34;103903.19;5060154;28;20037;-84
2023/12/16 07:13:01;;;;;;;0.10;0.10;;;;;;;8.56;70.46;103901.06;5057638;28;20024;-84
2023/12/16 07:15:27;;;;;;;0.10;0.10;;;;;;;8.61;69.89;103900.31;5059838;28;20479;-85
2023/12/16 07:17:53;;;;;;;0.73;0.73;;;;;;;8.59;69.69;103905.56;5057912;28;20033;-85
2023/12/16 07:20:19;;;;;;;0.10;0.10;;;;;;;8.50;69.81;103899.91;5060233;28;20071;-85
2023/12/16 07:22:45;;;;;;;0.20;0.20;;;;;;;8.52;69.70;103908.81;5060090;28;20029;-84
2023/12/16 07:25:11;;;;;;;0.15;0.15;;;;;;;8.49;69.81;103906.06;5062172;28;20021;-82
2023/12/16 07:27:37;;;;;;;0.95;0.95;;;;;;;8.55;69.83;103908.94;5061566;28;20032;-84
2023/12/16 07:30:04;;;;;;;5.82;2.75;;;;;;;8.51;69.74;103917.56;5049786;28;20462;-85
2023/12/16 07:32:30;;;;;;;0.20;0.20;;;;;;;8.42;69.97;103918.09;5054267;28;20554;-85
2023/12/16 07:34:56;;;;;;;0.10;0.10;;;;;;;8.43;70.16;103909.31;5051923;28;20030;-84
2023/12/16 07:37:23;;;;;;;1.15;1.15;;;;;;;8.41;70.21;103911.91;5059012;28;20039;-84
2023/12/16 07:39:49;;;;;;;0.20;0.20;;;;;;;8.45;70.13;103912.03;5059768;28;20029;-84
2023/12/16 07:42:15;;;;;;;0.20;0.20;;;;;;;8.44;70.50;103911.13;5058094;28;20577;-84
2023/12/16 07:44:41;;;;;;;0.52;0.52;;;;;;;8.45;70.52;103915.59;5058920;28;20037;-84
2023/12/16 07:47:07;;;;;;;0.17;0.17;;;;;;;8.43;70.85;103914.63;5059347;28;20484;-82
2023/12/16 07:49:33;;;;;;;0.10;0.10;;;;;;;8.40;70.82;103909.22;5058195;28;20034;-83
2023/12/16 07:52:00;;;;;;;0.20;0.20;;;;;;;8.48;70.54;103901.63;5054996;28;20040;-83
2023/12/16 07:54:28;;;;;;;0.10;0.10;;;;;;;8.39;71.08;103907.41;5065226;28;20020;-83
2023/12/16 07:56:54;;;;;;;0.10;0.10;;;;;;;8.48;70.53;103891.06;5070528;28;20028;-82
2023/12/16 07:59:20;;;;;;;0.25;0.25;;;;;;;8.59;70.24;103897.63;5061352;28;20033;-83
2023/12/16 08:01:50;;;;;;;0.88;0.88;;;;;;;8.55;70.66;103903.66;5064224;28;20495;-85
2023/12/16 08:04:18;;;;;;;0.20;0.20;;;;;;;8.59;70.38;103905.56;5059892;28;20036;-84
2023/12/16 08:06:44;;;;;;;0.17;0.17;;;;;;;8.58;71.19;103909.03;5064617;28;20033;-83
2023/12/16 08:09:10;;;;;;;0.10;0.10;;;;;;;8.64;70.74;103917.22;5059618;28;20040;-84
2023/12/16 08:11:37;;;;;;;0.10;0.10;;;;;;;8.65;70.98;103913.72;5061323;28;20051;-85
2023/12/16 08:14:03;;;;;;;0.20;0.20;;;;;;;8.72;70.70;103918.41;5059157;28;20495;-85
2023/12/16 08:16:29;;;;;;;0.25;0.25;;;;;;;8.69;71.38;103917.38;5061397;28;20021;-83
2023/12/16 08:18:55;;;;;;;0.10;0.10;;;;;;;8.73;70.91;103916.66;5077502;28;20031;-84
2023/12/16 08:21:21;;;;;;;0.20;0.20;;;;;;;8.83;70.79;103917.91;5075041;28;20033;-83
2023/12/16 08:23:48;;;;;;;0.50;0.50;;;;;;;8.83;71.82;103915.25;5060045;28;20045;-84
2023/12/16 08:26:14;;;;;;;0.20;0.20;;;;;;;8.89;71.30;103918.13;5054930;28;20026;-82
2023/12/16 08:28:41;;;;;;;0.20;0.20;;;;;;;8.92;71.79;103920.84;5056137;28;20389;-84
2023/12/16 08:31:07;;;;;;;0.20;0.20;;;;;;;8.99;71.71;103917.59;5058349;28;20476;-84
2023/12/16 08:33:35;;;;;;;0.20;0.20;;;;;;;9.14;71.68;103924.28;5060478;28;20110;-83
2023/12/16 08:36:01;;;;;;;0.10;0.10;;;;;;;9.17;71.79;103932.31;5055389;28;20025;-83
2023/12/16 08:38:30;;;;;;;0.17;0.17;;;;;;;9.28;71.46;103936.25;5055576;28;20079;-86
2023/12/16 08:40:57;;;;;;;0.10;0.10;;;;;;;9.33;71.84;103934.69;5057461;28;20053;-84
2023/12/16 08:43:24;;;;;;;1.95;0.85;;;;;;;9.42;71.77;103933.19;5062493;28;20039;-84
2023/12/16 08:45:50;;;;;;;0.17;0.17;;;;;;;9.52;71.67;103938.88;5053794;28;20031;-83
2023/12/16 08:48:16;;;;;;;2.63;2.40;;;;;;;9.67;71.08;103941.13;5055581;28;20075;-83
2023/12/16 08:50:42;;;;;;;0.10;0.10;;;;;;;9.83;71.13;103946.91;5055436;28;20029;-84
2023/12/16 08:53:10;;;;;;;0.10;0.10;;;;;;;9.82;71.49;103945.13;5057766;28;20029;-85
2023/12/16 08:55:36;;;;;;;0.10;0.10;;;;;;;9.95;71.40;103946.44;5052269;28;20036;-83
2023/12/16 08:58:03;;;;;;;0.10;0.10;;;;;;;10.00;71.77;103950.13;5059191;28;20033;-84
2023/12/16 09:00:29;;;;;;;0.40;0.40;;;;;;;10.13;71.73;103946.13;5055233;28;20033;-84
2023/12/16 09:02:56;;;;;;;0.10;0.10;;;;;;;10.18;71.95;103948.06;5052544;28;20462;-83
2023/12/16 09:05:22;;;;;;;0.10;0.10;;;;;;;10.32;71.59;103960.88;5061339;28;20035;-84
2023/12/16 09:07:48;;;;;;;0.10;0.10;;;;;;;10.36;71.47;103950.41;5054355;28;20040;-84
2023/12/16 09:10:14;;;;;;;0.10;0.10;;;;;;;10.42;71.73;103956.75;5052943;28;20105;-84
2023/12/16 09:12:40;;;;;;;0.10;0.10;;;;;;;10.53;71.28;103952.72;5056596;28;20028;-84
2023/12/16 09:15:09;;;;;;;0.10;0.10;;;;;;;10.56;71.32;103957.19;5054062;28;20102;-84
2023/12/16 09:17:35;;;;;;;0.15;0.15;;;;;;;10.53;71.32;103960.66;5058103;28;20033;-84
2023/12/16 09:20:02;;;;;;;0.10;0.10;;;;;;;10.67;71.06;103964.59;5054446;28;20082;-84
2023/12/16 09:22:28;;;;;;;1.48;1.38;;;;;;;10.64;71.79;103959.22;5053342;28;20037;-84
2023/12/16 09:24:54;;;;;;;3.33;3.08;;;;;;;10.77;71.20;103967.56;5058598;28;20025;-84
2023/12/16 09:27:21;;;;;;;0.10;0.10;;;;;;;10.85;70.86;103968.66;5057407;28;20499;-85
2023/12/16 09:29:47;;;;;;;0.30;0.30;;;;;;;10.89;70.82;103970.56;5050500;28;20033;-84
2023/12/16 09:32:14;;;;;;;0.10;0.10;;;;;;;10.89;70.89;103973.22;5060195;28;20028;-85
2023/12/16 09:34:42;;;;;;;0.20;0.20;;;;;;;10.89;70.75;103978.53;5059738;28;20136;-85
2023/12/16 09:37:08;;;;;;;0.77;0.77;;;;;;;10.92;71.22;103988.31;5059299;28;20056;-84
2023/12/16 09:39:34;;;;;;;0.10;0.10;;;;;;;10.94;71.19;103994.53;5055658;28;20127;-84
2023/12/16 09:42:03;;;;;;;0.15;0.15;;;;;;;10.96;71.82;103991.09;5060538;28;20064;-83
2023/12/16 09:44:35;;;;;;;0.20;0.20;;;;;;;11.00;71.88;103998.28;5064611;28;20024;-84
2023/12/16 09:47:01;;;;;;;0.10;0.10;;;;;;;10.91;72.63;103997.13;5061135;28;20407;-83
2023/12/16 09:49:30;;;;;;;0.10;0.10;;;;;;;10.96;72.29;103996.38;5059743;28;20040;-81
2023/12/16 09:51:56;;;;;;;0.10;0.10;;;;;;;11.03;72.06;104005.44;5055937;28;20025;-84
2023/12/16 09:54:22;;;;;;;0.32;0.32;;;;;;;11.09;72.12;103996.75;5052371;28;20124;-80
2023/12/16 09:56:50;;;;;;;0.10;0.10;;;;;;;11.15;72.36;103994.25;5054980;28;20027;-83
2023/12/16 09:59:17;;;;;;;3.83;2.08;;;;;;;11.15;71.78;103994.25;5048345;28;20024;-82
2023/12/16 10:01:56;;;;;;;0.17;0.17;;;;;;;11.22;72.29;104000.66;5056784;28;20116;-83
2023/12/16 10:04:23;;;;;;;0.30;0.30;;;;;;;11.26;71.81;103997.22;5055562;28;20395;-82
2023/12/16 10:06:49;;;;;;;0.10;0.10;;;;;;;11.38;71.27;104005.53;5047406;28;20021;-81
2023/12/16 10:09:15;;;;;;;0.10;0.10;;;;;;;11.38;71.97;103988.72;5056801;28;20119;-83
2023/12/16 10:11:42;;;;;;;0.10;0.10;;;;;;;11.42;71.57;103990.59;5064692;28;20028;-83
2023/12/16 10:14:08;;;;;;;0.10;0.10;;;;;;;11.37;71.77;103986.91;5066375;28;20025;-83
2023/12/16 10:16:34;;;;;;;1.02;1.02;;;;;;;11.30;71.81;103985.81;5069932;28;20021;-83
2023/12/16 10:19:01;;;;;;;0.13;0.13;;;;;;;11.40;72.03;103997.59;5063789;28;20040;-83
2023/12/16 10:21:29;;;;;;;0.68;0.68;;;;;;;11.47;71.66;104005.78;5064203;28;20064;-83
2023/12/16 10:23:59;;;;;;;0.25;0.25;;;;;;;11.47;71.36;104002.22;5061684;28;20100;-83
2023/12/16 10:26:26;;;;;;;0.73;0.73;;;;;;;11.46;71.52;104000.44;5067833;28;20052;-82
2023/12/16 10:28:54;;;;;;;0.10;0.10;;;;;;;11.57;71.20;103996.28;5064550;28;20043;-82
2023/12/16 10:31:21;;;;;;;0.20;0.20;;;;;;;11.38;71.95;103997.56;5075799;28;20025;-83
2023/12/16 10:33:48;;;;;;;0.10;0.10;;;;;;;11.52;72.10;103987.31;5069676;28;20097;-83
2023/12/16 10:36:15;;;;;;;0.10;0.10;;;;;;;11.53;71.68;103994.44;5064420;28;20039;-83
2023/12/16 10:38:41;;;;;;;0.10;0.10;;;;;;;11.57;72.18;103992.75;5067210;28;20037;-82
2023/12/16 10:41:08;;;;;;;12.40;2.05;;;;;;;11.54;72.38;103982.03;5068811;28;20047;-82
2023/12/16 10:43:35;;;;;;;0.85;0.85;;;;;;;11.55;71.81;103983.84;5070939;28;20053;-82
2023/12/16 10:46:04;;;;;;;0.10;0.10;;;;;;;11.45;73.26;103980.94;5063221;28;20097;-82
2023/12/16 10:48:34;;;;;;;0.10;0.10;;;;;;;11.63;72.19;103980.53;5072823;28;20032;-82
2023/12/16 10:51:05;;;;;;;1.10;1.00;;;;;;;11.59;72.16;103988.34;5071214;28;20016;-82
2023/12/16 10:53:44;;;;;;;0.20;0.20;;;;;;;11.53;73.40;103991.78;5070934;28;20021;-79
2023/12/16 10:56:29;;;;;;;0.17;0.17;;;;;;;11.44;73.51;103984.47;5066785;28;20017;-81
2023/12/16 11:01:45;;;;;;;0.20;0.20;;;;;;;11.57;73.47;103974.16;5094676;27;1211292;-82
2023/12/16 11:04:18;;;;;;;0.55;0.55;;;;;;;11.52;73.79;103971.38;5128921;28;20037;-81
2023/12/16 11:07:05;;;;;;;0.10;0.10;;;;;;;11.49;73.33;103968.66;5125627;28;20024;-82
2023/12/16 11:09:33;;;;;;;0.30;0.30;;;;;;;11.51;73.66;103964.25;5118325;28;20026;-81
2023/12/16 11:12:01;;;;;;;0.10;0.10;;;;;;;11.43;73.46;103956.09;5106471;28;20114;-80
2023/12/16 11:14:29;;;;;;;0.20;0.20;;;;;;;11.59;73.14;103954.75;5108229;28;20044;-83
2023/12/16 11:17:09;;;;;;;0.50;0.50;;;;;;;11.50;73.87;103959.81;5106842;28;20028;-84
2023/12/16 11:19:48;;;;;;;0.63;0.63;;;;;;;11.52;74.08;103954.56;5112650;28;20024;-83
2023/12/16 11:22:22;;;;;;;0.10;0.10;;;;;;;11.48;74.27;103943.84;5119902;28;20471;-82
2023/12/16 11:24:50;;;;;;;0.10;0.10;;;;;;;11.36;74.29;103958.56;5111576;28;20048;-81
2023/12/16 11:27:16;;;;;;;0.17;0.17;;;;;;;11.43;73.66;103955.22;5117490;28;20024;-80
2023/12/16 11:29:43;;;;;;;0.10;0.10;;;;;;;11.39;74.40;103940.03;5110789;28;20038;-80
2023/12/16 11:32:10;;;;;;;0.10;0.10;;;;;;;11.42;74.94;103937.50;5114020;28;20034;-82